sensor_id;sensor_type;location;lat;lon;timestamp;P1;durP1;ratioP1;P2;durP2;ratioP2
4448;SDS011;2237;51.870;6.160;2023-02-02T00:01:59;9.18;;;1.98;;
4448;SDS011;2237;51.870;6.160;2023-02-02T00:04:27;5.40;;;0.75;;
4448;SDS011;2237;51.870;6.160;2023-02-02T00:06:56;12.63;;;1.30;;
4448;SDS011;2237;51.870;6.160;2023-02-02T00:09:25;11.00;;;1.20;;
4448;SDS011;2237;51.870;6.160;2023-02-02T00:11:54;11.88;;;1.73;;
4448;SDS011;2237;51.870;6.160;2023-02-02T00:14:21;3.50;;;0.82;;
4448;SDS011;2237;51.870;6.160;2023-02-02T00:16:48;5.07;;;1.15;;
4448;SDS011;2237;51.870;6.160;2023-02-02T00:19:17;5.10;;;1.17;;
4448;SDS011;2237;51.870;6.160;2023-02-02T00:21:45;7.45;;;1.42;;
4448;SDS011;2237;51.870;6.160;2023-02-02T00:24:13;4.50;;;0.98;;
4448;SDS011;2237;51.870;6.160;2023-02-02T00:26:43;4.50;;;0.98;;
4448;SDS011;2237;51.870;6.160;2023-02-02T00:29:17;7.95;;;1.73;;
4448;SDS011;2237;51.870;6.160;2023-02-02T00:31:48;4.38;;;1.02;;
4448;SDS011;2237;51.870;6.160;2023-02-02T00:34:15;3.90;;;1.25;;
4448;SDS011;2237;51.870;6.160;2023-02-02T00:36:43;13.70;;;1.70;;
4448;SDS011;2237;51.870;6.160;2023-02-02T00:39:10;10.00;;;1.50;;
4448;SDS011;2237;51.870;6.160;2023-02-02T00:41:40;14.70;;;1.42;;
4448;SDS011;2237;51.870;6.160;2023-02-02T00:44:07;13.18;;;2.60;;
4448;SDS011;2237;51.870;6.160;2023-02-02T00:46:52;14.38;;;3.33;;
4448;SDS011;2237;51.870;6.160;2023-02-02T00:49:18;11.85;;;3.03;;
4448;SDS011;2237;51.870;6.160;2023-02-02T00:51:45;13.02;;;2.58;;
4448;SDS011;2237;51.870;6.160;2023-02-02T00:54:11;9.73;;;2.00;;
4448;SDS011;2237;51.870;6.160;2023-02-02T00:56:39;10.82;;;2.22;;
4448;SDS011;2237;51.870;6.160;2023-02-02T00:59:06;4.07;;;1.52;;
4448;SDS011;2237;51.870;6.160;2023-02-02T01:01:33;16.67;;;2.85;;
4448;SDS011;2237;51.870;6.160;2023-02-02T01:04:00;11.35;;;2.10;;
4448;SDS011;2237;51.870;6.160;2023-02-02T01:06:27;8.65;;;2.25;;
4448;SDS011;2237;51.870;6.160;2023-02-02T01:08:53;11.65;;;1.85;;
4448;SDS011;2237;51.870;6.160;2023-02-02T01:11:19;10.13;;;2.58;;
4448;SDS011;2237;51.870;6.160;2023-02-02T01:13:46;10.88;;;2.08;;
4448;SDS011;2237;51.870;6.160;2023-02-02T01:16:12;16.67;;;2.50;;
4448;SDS011;2237;51.870;6.160;2023-02-02T01:18:39;8.65;;;1.30;;
4448;SDS011;2237;51.870;6.160;2023-02-02T01:21:06;8.82;;;1.63;;
4448;SDS011;2237;51.870;6.160;2023-02-02T01:23:35;9.27;;;2.08;;
4448;SDS011;2237;51.870;6.160;2023-02-02T01:26:04;15.25;;;1.83;;
4448;SDS011;2237;51.870;6.160;2023-02-02T01:28:32;10.20;;;1.75;;
4448;SDS011;2237;51.870;6.160;2023-02-02T01:31:03;4.13;;;1.20;;
4448;SDS011;2237;51.870;6.160;2023-02-02T01:33:32;9.88;;;2.00;;
4448;SDS011;2237;51.870;6.160;2023-02-02T01:36:01;7.95;;;1.75;;
4448;SDS011;2237;51.870;6.160;2023-02-02T01:38:29;15.75;;;1.42;;
4448;SDS011;2237;51.870;6.160;2023-02-02T01:40:56;8.43;;;1.52;;
4448;SDS011;2237;51.870;6.160;2023-02-02T01:45:51;9.48;;;1.55;;
4448;SDS011;2237;51.870;6.160;2023-02-02T01:48:19;10.13;;;2.20;;
4448;SDS011;2237;51.870;6.160;2023-02-02T01:50:54;11.20;;;2.10;;
4448;SDS011;2237;51.870;6.160;2023-02-02T01:53:24;7.53;;;1.50;;
4448;SDS011;2237;51.870;6.160;2023-02-02T01:55:51;6.13;;;1.08;;
4448;SDS011;2237;51.870;6.160;2023-02-02T01:58:27;9.80;;;1.52;;
4448;SDS011;2237;51.870;6.160;2023-02-02T02:00:57;6.60;;;1.27;;
4448;SDS011;2237;51.870;6.160;2023-02-02T02:03:24;13.27;;;2.00;;
4448;SDS011;2237;51.870;6.160;2023-02-02T02:05:53;7.93;;;1.60;;
4448;SDS011;2237;51.870;6.160;2023-02-02T02:08:23;18.77;;;3.30;;
4448;SDS011;2237;51.870;6.160;2023-02-02T02:10:53;12.63;;;2.92;;
4448;SDS011;2237;51.870;6.160;2023-02-02T02:13:21;12.63;;;3.13;;
4448;SDS011;2237;51.870;6.160;2023-02-02T02:16:34;5.47;;;1.55;;
4448;SDS011;2237;51.870;6.160;2023-02-02T02:22:06;4.75;;;1.08;;
4448;SDS011;2237;51.870;6.160;2023-02-02T02:28:46;9.85;;;1.52;;
4448;SDS011;2237;51.870;6.160;2023-02-02T02:33:46;13.75;;;2.13;;
4448;SDS011;2237;51.870;6.160;2023-02-02T02:36:28;7.63;;;1.35;;
4448;SDS011;2237;51.870;6.160;2023-02-02T02:39:24;11.18;;;1.60;;
4448;SDS011;2237;51.870;6.160;2023-02-02T02:41:59;13.20;;;1.00;;
4448;SDS011;2237;51.870;6.160;2023-02-02T02:44:32;4.47;;;0.82;;
4448;SDS011;2237;51.870;6.160;2023-02-02T02:46:59;2.67;;;0.63;;
4448;SDS011;2237;51.870;6.160;2023-02-02T02:49:25;5.30;;;1.17;;
4448;SDS011;2237;51.870;6.160;2023-02-02T02:51:52;4.72;;;1.00;;
4448;SDS011;2237;51.870;6.160;2023-02-02T02:54:27;8.07;;;1.13;;
4448;SDS011;2237;51.870;6.160;2023-02-02T03:07:44;2.78;;;0.68;;
4448;SDS011;2237;51.870;6.160;2023-02-02T03:10:16;3.55;;;1.08;;
4448;SDS011;2237;51.870;6.160;2023-02-02T03:12:47;4.55;;;0.93;;
4448;SDS011;2237;51.870;6.160;2023-02-02T03:15:15;8.73;;;1.67;;
4448;SDS011;2237;51.870;6.160;2023-02-02T03:17:44;7.43;;;1.17;;
4448;SDS011;2237;51.870;6.160;2023-02-02T03:20:12;10.00;;;2.03;;
4448;SDS011;2237;51.870;6.160;2023-02-02T03:22:38;12.75;;;2.80;;
4448;SDS011;2237;51.870;6.160;2023-02-02T03:25:05;17.05;;;3.38;;
4448;SDS011;2237;51.870;6.160;2023-02-02T03:27:38;13.70;;;2.63;;
4448;SDS011;2237;51.870;6.160;2023-02-02T03:30:05;8.35;;;2.17;;
4448;SDS011;2237;51.870;6.160;2023-02-02T03:32:35;9.30;;;2.60;;
4448;SDS011;2237;51.870;6.160;2023-02-02T03:35:02;9.90;;;2.67;;
4448;SDS011;2237;51.870;6.160;2023-02-02T03:37:29;9.30;;;1.83;;
4448;SDS011;2237;51.870;6.160;2023-02-02T03:39:55;5.95;;;1.38;;
4448;SDS011;2237;51.870;6.160;2023-02-02T03:42:22;5.60;;;1.67;;
4448;SDS011;2237;51.870;6.160;2023-02-02T03:44:48;8.13;;;1.35;;
4448;SDS011;2237;51.870;6.160;2023-02-02T03:47:14;7.32;;;2.50;;
4448;SDS011;2237;51.870;6.160;2023-02-02T03:49:41;5.85;;;1.58;;
4448;SDS011;2237;51.870;6.160;2023-02-02T03:52:07;7.28;;;2.30;;
4448;SDS011;2237;51.870;6.160;2023-02-02T03:54:33;10.82;;;2.20;;
4448;SDS011;2237;51.870;6.160;2023-02-02T03:57:00;10.50;;;3.00;;
4448;SDS011;2237;51.870;6.160;2023-02-02T03:59:26;13.75;;;2.78;;
4448;SDS011;2237;51.870;6.160;2023-02-02T04:01:52;9.10;;;2.63;;
4448;SDS011;2237;51.870;6.160;2023-02-02T04:04:19;11.77;;;3.03;;
4448;SDS011;2237;51.870;6.160;2023-02-02T04:06:45;6.50;;;2.92;;
4448;SDS011;2237;51.870;6.160;2023-02-02T04:09:11;10.60;;;4.47;;
4448;SDS011;2237;51.870;6.160;2023-02-02T04:11:38;21.30;;;4.63;;
4448;SDS011;2237;51.870;6.160;2023-02-02T04:14:05;23.92;;;5.53;;
4448;SDS011;2237;51.870;6.160;2023-02-02T04:16:32;10.88;;;3.10;;
4448;SDS011;2237;51.870;6.160;2023-02-02T04:19:02;11.98;;;2.80;;
4448;SDS011;2237;51.870;6.160;2023-02-02T04:21:29;9.10;;;1.88;;
4448;SDS011;2237;51.870;6.160;2023-02-02T04:23:56;15.38;;;1.67;;
4448;SDS011;2237;51.870;6.160;2023-02-02T04:26:22;8.55;;;1.77;;
4448;SDS011;2237;51.870;6.160;2023-02-02T04:28:51;19.20;;;3.38;;
4448;SDS011;2237;51.870;6.160;2023-02-02T04:31:18;9.20;;;2.25;;
4448;SDS011;2237;51.870;6.160;2023-02-02T04:33:45;12.98;;;2.75;;
4448;SDS011;2237;51.870;6.160;2023-02-02T04:36:11;10.63;;;2.30;;
4448;SDS011;2237;51.870;6.160;2023-02-02T04:38:37;20.75;;;4.10;;
4448;SDS011;2237;51.870;6.160;2023-02-02T04:41:07;7.72;;;2.00;;
4448;SDS011;2237;51.870;6.160;2023-02-02T04:43:36;12.68;;;3.05;;
4448;SDS011;2237;51.870;6.160;2023-02-02T04:46:03;11.13;;;1.55;;
4448;SDS011;2237;51.870;6.160;2023-02-02T04:48:29;9.10;;;2.50;;
4448;SDS011;2237;51.870;6.160;2023-02-02T04:51:07;15.93;;;3.17;;
4448;SDS011;2237;51.870;6.160;2023-02-02T04:53:34;10.20;;;3.10;;
4448;SDS011;2237;51.870;6.160;2023-02-02T04:56:05;13.07;;;2.45;;
4448;SDS011;2237;51.870;6.160;2023-02-02T04:58:32;9.00;;;1.65;;
4448;SDS011;2237;51.870;6.160;2023-02-02T05:00:59;15.77;;;2.42;;
4448;SDS011;2237;51.870;6.160;2023-02-02T05:03:26;11.23;;;1.83;;
4448;SDS011;2237;51.870;6.160;2023-02-02T05:05:59;6.53;;;1.35;;
4448;SDS011;2237;51.870;6.160;2023-02-02T05:08:27;4.60;;;1.65;;
4448;SDS011;2237;51.870;6.160;2023-02-02T05:10:53;6.50;;;1.38;;
4448;SDS011;2237;51.870;6.160;2023-02-02T05:13:19;8.38;;;1.77;;
4448;SDS011;2237;51.870;6.160;2023-02-02T05:15:46;6.78;;;1.42;;
4448;SDS011;2237;51.870;6.160;2023-02-02T05:18:13;8.98;;;1.73;;
4448;SDS011;2237;51.870;6.160;2023-02-02T05:20:39;13.13;;;2.35;;
4448;SDS011;2237;51.870;6.160;2023-02-02T05:23:06;7.22;;;1.85;;
4448;SDS011;2237;51.870;6.160;2023-02-02T05:25:32;14.02;;;2.80;;
4448;SDS011;2237;51.870;6.160;2023-02-02T05:27:58;13.32;;;1.92;;
4448;SDS011;2237;51.870;6.160;2023-02-02T05:30:25;6.00;;;2.08;;
4448;SDS011;2237;51.870;6.160;2023-02-02T05:32:51;2.95;;;1.00;;
4448;SDS011;2237;51.870;6.160;2023-02-02T05:35:17;30.20;;;1.80;;
4448;SDS011;2237;51.870;6.160;2023-02-02T05:37:44;8.68;;;1.50;;
4448;SDS011;2237;51.870;6.160;2023-02-02T05:40:10;9.45;;;2.13;;
4448;SDS011;2237;51.870;6.160;2023-02-02T05:42:37;7.43;;;1.60;;
4448;SDS011;2237;51.870;6.160;2023-02-02T05:45:03;5.10;;;1.05;;
4448;SDS011;2237;51.870;6.160;2023-02-02T05:47:30;12.18;;;2.50;;
4448;SDS011;2237;51.870;6.160;2023-02-02T05:49:56;8.85;;;1.27;;
4448;SDS011;2237;51.870;6.160;2023-02-02T05:52:22;8.50;;;1.55;;
4448;SDS011;2237;51.870;6.160;2023-02-02T05:54:50;8.20;;;1.63;;
4448;SDS011;2237;51.870;6.160;2023-02-02T05:57:17;5.57;;;1.17;;
4448;SDS011;2237;51.870;6.160;2023-02-02T05:59:43;13.48;;;2.67;;
4448;SDS011;2237;51.870;6.160;2023-02-02T06:02:09;7.22;;;1.83;;
4448;SDS011;2237;51.870;6.160;2023-02-02T06:04:36;9.10;;;1.23;;
4448;SDS011;2237;51.870;6.160;2023-02-02T06:07:02;7.95;;;1.60;;
4448;SDS011;2237;51.870;6.160;2023-02-02T06:09:28;8.57;;;1.80;;
4448;SDS011;2237;51.870;6.160;2023-02-02T06:11:55;14.52;;;1.48;;
4448;SDS011;2237;51.870;6.160;2023-02-02T06:14:21;15.15;;;1.80;;
4448;SDS011;2237;51.870;6.160;2023-02-02T06:16:47;9.30;;;1.83;;
4448;SDS011;2237;51.870;6.160;2023-02-02T06:19:14;9.88;;;2.22;;
4448;SDS011;2237;51.870;6.160;2023-02-02T06:21:40;9.70;;;1.30;;
4448;SDS011;2237;51.870;6.160;2023-02-02T06:24:06;9.93;;;2.45;;
4448;SDS011;2237;51.870;6.160;2023-02-02T06:26:33;11.02;;;1.42;;
4448;SDS011;2237;51.870;6.160;2023-02-02T06:28:59;8.23;;;2.47;;
4448;SDS011;2237;51.870;6.160;2023-02-02T06:31:26;7.05;;;1.70;;
4448;SDS011;2237;51.870;6.160;2023-02-02T06:33:53;7.03;;;1.25;;
4448;SDS011;2237;51.870;6.160;2023-02-02T06:36:22;8.10;;;2.25;;
4448;SDS011;2237;51.870;6.160;2023-02-02T06:38:50;5.45;;;1.02;;
4448;SDS011;2237;51.870;6.160;2023-02-02T06:41:18;7.03;;;2.00;;
4448;SDS011;2237;51.870;6.160;2023-02-02T06:43:46;5.28;;;2.15;;
4448;SDS011;2237;51.870;6.160;2023-02-02T06:46:13;12.55;;;2.20;;
4448;SDS011;2237;51.870;6.160;2023-02-02T06:48:39;13.13;;;1.73;;
4448;SDS011;2237;51.870;6.160;2023-02-02T06:51:06;11.43;;;2.38;;
4448;SDS011;2237;51.870;6.160;2023-02-02T06:53:32;12.55;;;2.22;;
4448;SDS011;2237;51.870;6.160;2023-02-02T06:56:04;8.68;;;2.70;;
4448;SDS011;2237;51.870;6.160;2023-02-02T06:58:32;14.68;;;3.08;;
4448;SDS011;2237;51.870;6.160;2023-02-02T07:01:02;15.55;;;3.13;;
4448;SDS011;2237;51.870;6.160;2023-02-02T07:03:36;14.20;;;2.55;;
4448;SDS011;2237;51.870;6.160;2023-02-02T07:08:43;9.57;;;1.50;;
4448;SDS011;2237;51.870;6.160;2023-02-02T07:11:10;10.70;;;2.80;;
4448;SDS011;2237;51.870;6.160;2023-02-02T07:13:42;14.55;;;2.60;;
4448;SDS011;2237;51.870;6.160;2023-02-02T07:16:09;14.57;;;3.05;;
4448;SDS011;2237;51.870;6.160;2023-02-02T07:18:37;11.65;;;2.50;;
4448;SDS011;2237;51.870;6.160;2023-02-02T07:21:08;9.07;;;1.45;;
4448;SDS011;2237;51.870;6.160;2023-02-02T07:23:40;11.23;;;2.22;;
4448;SDS011;2237;51.870;6.160;2023-02-02T07:26:07;12.63;;;2.47;;
4448;SDS011;2237;51.870;6.160;2023-02-02T07:28:35;10.10;;;2.28;;
4448;SDS011;2237;51.870;6.160;2023-02-02T07:31:11;5.63;;;1.38;;
4448;SDS011;2237;51.870;6.160;2023-02-02T07:33:40;6.43;;;1.50;;
4448;SDS011;2237;51.870;6.160;2023-02-02T07:36:07;12.18;;;1.60;;
4448;SDS011;2237;51.870;6.160;2023-02-02T07:38:34;11.60;;;2.50;;
4448;SDS011;2237;51.870;6.160;2023-02-02T07:41:00;7.45;;;1.73;;
4448;SDS011;2237;51.870;6.160;2023-02-02T07:43:27;10.27;;;2.55;;
4448;SDS011;2237;51.870;6.160;2023-02-02T07:45:53;14.73;;;2.47;;
4448;SDS011;2237;51.870;6.160;2023-02-02T07:48:20;11.75;;;1.83;;
4448;SDS011;2237;51.870;6.160;2023-02-02T07:50:46;12.50;;;2.55;;
4448;SDS011;2237;51.870;6.160;2023-02-02T07:53:13;12.40;;;2.90;;
4448;SDS011;2237;51.870;6.160;2023-02-02T07:55:40;5.57;;;2.00;;
4448;SDS011;2237;51.870;6.160;2023-02-02T07:58:06;9.43;;;1.92;;
4448;SDS011;2237;51.870;6.160;2023-02-02T08:00:35;10.70;;;2.05;;
4448;SDS011;2237;51.870;6.160;2023-02-02T08:03:01;18.98;;;2.95;;
4448;SDS011;2237;51.870;6.160;2023-02-02T08:05:28;8.00;;;1.50;;
4448;SDS011;2237;51.870;6.160;2023-02-02T08:07:54;9.88;;;1.85;;
4448;SDS011;2237;51.870;6.160;2023-02-02T08:10:20;18.52;;;3.00;;
4448;SDS011;2237;51.870;6.160;2023-02-02T08:12:47;6.60;;;1.60;;
4448;SDS011;2237;51.870;6.160;2023-02-02T08:15:13;8.88;;;1.95;;
4448;SDS011;2237;51.870;6.160;2023-02-02T08:17:43;10.75;;;2.30;;
4448;SDS011;2237;51.870;6.160;2023-02-02T08:20:11;15.98;;;2.38;;
4448;SDS011;2237;51.870;6.160;2023-02-02T08:22:38;11.63;;;2.38;;
4448;SDS011;2237;51.870;6.160;2023-02-02T08:25:05;13.48;;;3.20;;
4448;SDS011;2237;51.870;6.160;2023-02-02T08:27:31;8.40;;;2.80;;
4448;SDS011;2237;51.870;6.160;2023-02-02T08:29:58;15.32;;;2.47;;
4448;SDS011;2237;51.870;6.160;2023-02-02T08:32:24;13.85;;;2.63;;
4448;SDS011;2237;51.870;6.160;2023-02-02T08:34:51;14.80;;;2.58;;
4448;SDS011;2237;51.870;6.160;2023-02-02T08:37:17;11.38;;;3.20;;
4448;SDS011;2237;51.870;6.160;2023-02-02T08:39:43;20.27;;;4.28;;
4448;SDS011;2237;51.870;6.160;2023-02-02T08:42:10;10.60;;;3.03;;
4448;SDS011;2237;51.870;6.160;2023-02-02T08:44:36;10.18;;;3.55;;
4448;SDS011;2237;51.870;6.160;2023-02-02T08:47:22;13.35;;;3.83;;
4448;SDS011;2237;51.870;6.160;2023-02-02T08:49:49;16.00;;;2.92;;
4448;SDS011;2237;51.870;6.160;2023-02-02T08:52:15;8.60;;;2.22;;
4448;SDS011;2237;51.870;6.160;2023-02-02T08:54:41;10.65;;;2.38;;
4448;SDS011;2237;51.870;6.160;2023-02-02T08:57:08;19.45;;;2.95;;
4448;SDS011;2237;51.870;6.160;2023-02-02T08:59:34;13.15;;;3.25;;
4448;SDS011;2237;51.870;6.160;2023-02-02T09:02:00;8.77;;;1.98;;
4448;SDS011;2237;51.870;6.160;2023-02-02T09:04:27;8.95;;;2.03;;
4448;SDS011;2237;51.870;6.160;2023-02-02T09:06:53;10.65;;;2.03;;
4448;SDS011;2237;51.870;6.160;2023-02-02T09:09:20;9.82;;;2.47;;
4448;SDS011;2237;51.870;6.160;2023-02-02T09:11:46;11.73;;;1.08;;
4448;SDS011;2237;51.870;6.160;2023-02-02T09:14:12;4.90;;;1.33;;
4448;SDS011;2237;51.870;6.160;2023-02-02T09:16:39;6.57;;;1.40;;
4448;SDS011;2237;51.870;6.160;2023-02-02T09:19:06;9.43;;;2.33;;
4448;SDS011;2237;51.870;6.160;2023-02-02T09:21:32;9.27;;;2.20;;
4448;SDS011;2237;51.870;6.160;2023-02-02T09:24:05;7.88;;;2.28;;
4448;SDS011;2237;51.870;6.160;2023-02-02T09:26:36;16.77;;;2.50;;
4448;SDS011;2237;51.870;6.160;2023-02-02T09:29:04;19.33;;;4.28;;
4448;SDS011;2237;51.870;6.160;2023-02-02T09:31:32;11.25;;;2.22;;
4448;SDS011;2237;51.870;6.160;2023-02-02T09:34:04;8.38;;;1.52;;
4448;SDS011;2237;51.870;6.160;2023-02-02T09:36:32;7.60;;;1.13;;
4448;SDS011;2237;51.870;6.160;2023-02-02T09:38:59;14.40;;;2.13;;
4448;SDS011;2237;51.870;6.160;2023-02-02T09:52:11;8.68;;;1.27;;
4448;SDS011;2237;51.870;6.160;2023-02-02T09:54:43;8.48;;;2.00;;
4448;SDS011;2237;51.870;6.160;2023-02-02T09:57:21;15.27;;;2.10;;
4448;SDS011;2237;51.870;6.160;2023-02-02T09:59:51;6.65;;;1.48;;
4448;SDS011;2237;51.870;6.160;2023-02-02T10:02:20;9.25;;;2.05;;
4448;SDS011;2237;51.870;6.160;2023-02-02T10:04:50;8.55;;;1.60;;
4448;SDS011;2237;51.870;6.160;2023-02-02T10:07:24;4.13;;;1.00;;
4448;SDS011;2237;51.870;6.160;2023-02-02T10:10:00;15.32;;;2.00;;
4448;SDS011;2237;51.870;6.160;2023-02-02T10:20:58;4.97;;;1.30;;
4448;SDS011;2237;51.870;6.160;2023-02-02T10:23:33;11.20;;;1.95;;
4448;SDS011;2237;51.870;6.160;2023-02-02T10:26:13;12.95;;;2.13;;
4448;SDS011;2237;51.870;6.160;2023-02-02T10:40:30;14.15;;;3.22;;
4448;SDS011;2237;51.870;6.160;2023-02-02T10:43:30;8.35;;;2.05;;
4448;SDS011;2237;51.870;6.160;2023-02-02T10:46:57;3.42;;;0.82;;
4448;SDS011;2237;51.870;6.160;2023-02-02T11:00:23;7.85;;;1.38;;
4448;SDS011;2237;51.870;6.160;2023-02-02T11:02:55;5.18;;;1.27;;
4448;SDS011;2237;51.870;6.160;2023-02-02T11:05:22;10.90;;;1.95;;
4448;SDS011;2237;51.870;6.160;2023-02-02T11:08:21;14.90;;;2.00;;
4448;SDS011;2237;51.870;6.160;2023-02-02T11:10:53;8.75;;;1.63;;
4448;SDS011;2237;51.870;6.160;2023-02-02T11:13:27;16.00;;;2.22;;
4448;SDS011;2237;51.870;6.160;2023-02-02T11:21:45;9.25;;;1.85;;
4448;SDS011;2237;51.870;6.160;2023-02-02T11:27:02;6.22;;;1.13;;
4448;SDS011;2237;51.870;6.160;2023-02-02T11:38:14;2.83;;;0.70;;
4448;SDS011;2237;51.870;6.160;2023-02-02T11:40:51;8.68;;;2.00;;
4448;SDS011;2237;51.870;6.160;2023-02-02T11:43:29;10.13;;;2.35;;
4448;SDS011;2237;51.870;6.160;2023-02-02T11:48:30;5.90;;;1.50;;
4448;SDS011;2237;51.870;6.160;2023-02-02T11:51:02;8.13;;;2.13;;
4448;SDS011;2237;51.870;6.160;2023-02-02T11:53:32;19.67;;;3.33;;
4448;SDS011;2237;51.870;6.160;2023-02-02T11:56:05;11.68;;;3.30;;
4448;SDS011;2237;51.870;6.160;2023-02-02T11:58:44;14.63;;;2.60;;
4448;SDS011;2237;51.870;6.160;2023-02-02T12:01:31;10.85;;;2.60;;
4448;SDS011;2237;51.870;6.160;2023-02-02T12:03:59;9.43;;;2.40;;
4448;SDS011;2237;51.870;6.160;2023-02-02T12:06:37;14.32;;;2.60;;
4448;SDS011;2237;51.870;6.160;2023-02-02T12:09:09;9.70;;;2.22;;
4448;SDS011;2237;51.870;6.160;2023-02-02T12:20:15;10.65;;;2.53;;
4448;SDS011;2237;51.870;6.160;2023-02-02T12:36:58;6.30;;;1.80;;
4448;SDS011;2237;51.870;6.160;2023-02-02T12:39:48;6.95;;;1.38;;
4448;SDS011;2237;51.870;6.160;2023-02-02T12:42:39;10.90;;;1.92;;
4448;SDS011;2237;51.870;6.160;2023-02-02T12:45:27;6.88;;;1.00;;
4448;SDS011;2237;51.870;6.160;2023-02-02T12:53:58;8.95;;;1.25;;
4448;SDS011;2237;51.870;6.160;2023-02-02T12:57:01;5.50;;;1.38;;
4448;SDS011;2237;51.870;6.160;2023-02-02T12:59:59;6.88;;;1.20;;
4448;SDS011;2237;51.870;6.160;2023-02-02T13:08:29;13.80;;;2.80;;
4448;SDS011;2237;51.870;6.160;2023-02-02T13:11:08;11.70;;;2.17;;
4448;SDS011;2237;51.870;6.160;2023-02-02T13:13:57;5.93;;;2.03;;
4448;SDS011;2237;51.870;6.160;2023-02-02T13:16:30;15.82;;;1.65;;
4448;SDS011;2237;51.870;6.160;2023-02-02T13:19:03;8.75;;;1.77;;
4448;SDS011;2237;51.870;6.160;2023-02-02T13:21:32;10.30;;;2.20;;
4448;SDS011;2237;51.870;6.160;2023-02-02T13:24:02;12.82;;;1.80;;
4448;SDS011;2237;51.870;6.160;2023-02-02T13:26:39;7.13;;;1.63;;
4448;SDS011;2237;51.870;6.160;2023-02-02T13:31:41;5.93;;;1.13;;
4448;SDS011;2237;51.870;6.160;2023-02-02T13:37:15;4.97;;;1.55;;
4448;SDS011;2237;51.870;6.160;2023-02-02T13:39:54;6.40;;;1.15;;
4448;SDS011;2237;51.870;6.160;2023-02-02T13:45:00;3.55;;;1.58;;
4448;SDS011;2237;51.870;6.160;2023-02-02T13:47:42;4.63;;;1.45;;
4448;SDS011;2237;51.870;6.160;2023-02-02T13:50:15;10.02;;;2.17;;
4448;SDS011;2237;51.870;6.160;2023-02-02T13:52:49;3.85;;;1.50;;
4448;SDS011;2237;51.870;6.160;2023-02-02T13:55:42;8.65;;;2.50;;
4448;SDS011;2237;51.870;6.160;2023-02-02T13:58:29;9.90;;;2.50;;
4448;SDS011;2237;51.870;6.160;2023-02-02T14:01:09;4.72;;;1.25;;
4448;SDS011;2237;51.870;6.160;2023-02-02T14:06:10;6.53;;;2.47;;
4448;SDS011;2237;51.870;6.160;2023-02-02T14:08:42;6.22;;;2.58;;
4448;SDS011;2237;51.870;6.160;2023-02-02T14:11:15;3.42;;;1.98;;
4448;SDS011;2237;51.870;6.160;2023-02-02T14:13:46;10.50;;;2.95;;
4448;SDS011;2237;51.870;6.160;2023-02-02T14:19:00;9.52;;;2.33;;
4448;SDS011;2237;51.870;6.160;2023-02-02T14:24:14;12.32;;;3.08;;
4448;SDS011;2237;51.870;6.160;2023-02-02T14:31:58;29.80;;;3.08;;
4448;SDS011;2237;51.870;6.160;2023-02-02T14:34:26;6.13;;;2.10;;
4448;SDS011;2237;51.870;6.160;2023-02-02T14:48:41;4.15;;;1.85;;
4448;SDS011;2237;51.870;6.160;2023-02-02T14:51:19;6.57;;;3.20;;
4448;SDS011;2237;51.870;6.160;2023-02-02T14:53:49;7.25;;;2.28;;
4448;SDS011;2237;51.870;6.160;2023-02-02T14:56:18;8.20;;;3.40;;
4448;SDS011;2237;51.870;6.160;2023-02-02T15:06:23;8.73;;;3.15;;
4448;SDS011;2237;51.870;6.160;2023-02-02T15:16:55;3.70;;;1.77;;
4448;SDS011;2237;51.870;6.160;2023-02-02T15:19:29;4.63;;;1.77;;
4448;SDS011;2237;51.870;6.160;2023-02-02T15:25:00;5.10;;;2.00;;
4448;SDS011;2237;51.870;6.160;2023-02-02T15:27:36;4.53;;;2.20;;
4448;SDS011;2237;51.870;6.160;2023-02-02T15:30:20;2.10;;;1.08;;
4448;SDS011;2237;51.870;6.160;2023-02-02T15:32:47;4.10;;;1.85;;
4448;SDS011;2237;51.870;6.160;2023-02-02T15:35:19;5.50;;;1.75;;
4448;SDS011;2237;51.870;6.160;2023-02-02T15:37:52;6.47;;;2.58;;
4448;SDS011;2237;51.870;6.160;2023-02-02T15:40:24;3.72;;;1.38;;
4448;SDS011;2237;51.870;6.160;2023-02-02T15:42:57;7.53;;;1.50;;
4448;SDS011;2237;51.870;6.160;2023-02-02T15:47:54;4.30;;;1.88;;
4448;SDS011;2237;51.870;6.160;2023-02-02T15:50:21;3.58;;;2.03;;
4448;SDS011;2237;51.870;6.160;2023-02-02T15:52:48;2.90;;;1.55;;
4448;SDS011;2237;51.870;6.160;2023-02-02T15:55:30;5.38;;;2.83;;
4448;SDS011;2237;51.870;6.160;2023-02-02T15:57:59;3.78;;;2.22;;
4448;SDS011;2237;51.870;6.160;2023-02-02T16:00:30;5.32;;;2.35;;
4448;SDS011;2237;51.870;6.160;2023-02-02T16:03:11;10.13;;;3.22;;
4448;SDS011;2237;51.870;6.160;2023-02-02T16:05:47;9.15;;;2.03;;
4448;SDS011;2237;51.870;6.160;2023-02-02T16:08:17;5.38;;;2.78;;
4448;SDS011;2237;51.870;6.160;2023-02-02T16:10:49;5.93;;;2.97;;
4448;SDS011;2237;51.870;6.160;2023-02-02T16:13:23;6.13;;;2.83;;
4448;SDS011;2237;51.870;6.160;2023-02-02T16:15:58;4.75;;;2.50;;
4448;SDS011;2237;51.870;6.160;2023-02-02T16:18:26;5.78;;;1.73;;
4448;SDS011;2237;51.870;6.160;2023-02-02T16:20:53;3.40;;;2.10;;
4448;SDS011;2237;51.870;6.160;2023-02-02T16:23:25;5.72;;;3.55;;
4448;SDS011;2237;51.870;6.160;2023-02-02T16:25:55;4.68;;;2.50;;
4448;SDS011;2237;51.870;6.160;2023-02-02T16:28:24;7.53;;;3.92;;
4448;SDS011;2237;51.870;6.160;2023-02-02T16:30:51;8.18;;;3.72;;
4448;SDS011;2237;51.870;6.160;2023-02-02T16:33:35;7.95;;;3.28;;
4448;SDS011;2237;51.870;6.160;2023-02-02T16:38:51;3.78;;;1.58;;
4448;SDS011;2237;51.870;6.160;2023-02-02T16:41:29;7.72;;;4.07;;
4448;SDS011;2237;51.870;6.160;2023-02-02T16:46:53;6.30;;;4.03;;
4448;SDS011;2237;51.870;6.160;2023-02-02T16:49:24;6.57;;;3.22;;
4448;SDS011;2237;51.870;6.160;2023-02-02T16:54:41;11.45;;;5.10;;
4448;SDS011;2237;51.870;6.160;2023-02-02T16:57:25;4.38;;;2.50;;
4448;SDS011;2237;51.870;6.160;2023-02-02T16:59:58;5.53;;;3.38;;
4448;SDS011;2237;51.870;6.160;2023-02-02T17:02:31;10.38;;;4.82;;
4448;SDS011;2237;51.870;6.160;2023-02-02T17:07:58;5.55;;;2.85;;
4448;SDS011;2237;51.870;6.160;2023-02-02T17:10:30;8.32;;;2.97;;
4448;SDS011;2237;51.870;6.160;2023-02-02T17:13:00;9.30;;;5.03;;
4448;SDS011;2237;51.870;6.160;2023-02-02T17:17:55;11.77;;;4.90;;
4448;SDS011;2237;51.870;6.160;2023-02-02T17:20:22;11.82;;;5.43;;
4448;SDS011;2237;51.870;6.160;2023-02-02T17:22:49;8.15;;;4.25;;
4448;SDS011;2237;51.870;6.160;2023-02-02T17:25:43;6.93;;;4.07;;
4448;SDS011;2237;51.870;6.160;2023-02-02T17:28:11;9.55;;;4.88;;
4448;SDS011;2237;51.870;6.160;2023-02-02T17:30:39;9.25;;;4.95;;
4448;SDS011;2237;51.870;6.160;2023-02-02T17:33:18;8.00;;;4.25;;
4448;SDS011;2237;51.870;6.160;2023-02-02T17:35:45;13.77;;;6.85;;
4448;SDS011;2237;51.870;6.160;2023-02-02T17:38:21;7.68;;;4.10;;
4448;SDS011;2237;51.870;6.160;2023-02-02T17:40:48;11.32;;;5.47;;
4448;SDS011;2237;51.870;6.160;2023-02-02T17:43:16;10.50;;;4.55;;
4448;SDS011;2237;51.870;6.160;2023-02-02T17:45:42;18.70;;;5.30;;
4448;SDS011;2237;51.870;6.160;2023-02-02T17:48:09;12.80;;;5.63;;
4448;SDS011;2237;51.870;6.160;2023-02-02T17:50:37;16.50;;;4.20;;
4448;SDS011;2237;51.870;6.160;2023-02-02T17:53:04;12.98;;;5.53;;
4448;SDS011;2237;51.870;6.160;2023-02-02T17:55:33;17.50;;;5.53;;
4448;SDS011;2237;51.870;6.160;2023-02-02T17:58:02;19.60;;;6.07;;
4448;SDS011;2237;51.870;6.160;2023-02-02T18:00:29;17.60;;;5.30;;
4448;SDS011;2237;51.870;6.160;2023-02-02T18:03:03;13.65;;;3.28;;
4448;SDS011;2237;51.870;6.160;2023-02-02T18:05:37;10.13;;;3.97;;
4448;SDS011;2237;51.870;6.160;2023-02-02T18:08:08;8.68;;;4.65;;
4448;SDS011;2237;51.870;6.160;2023-02-02T18:10:36;15.50;;;4.78;;
4448;SDS011;2237;51.870;6.160;2023-02-02T18:13:03;13.73;;;5.68;;
4448;SDS011;2237;51.870;6.160;2023-02-02T18:15:29;12.05;;;3.63;;
4448;SDS011;2237;51.870;6.160;2023-02-02T18:17:56;14.77;;;5.05;;
4448;SDS011;2237;51.870;6.160;2023-02-02T18:20:22;16.30;;;4.90;;
4448;SDS011;2237;51.870;6.160;2023-02-02T18:22:49;12.88;;;4.90;;
4448;SDS011;2237;51.870;6.160;2023-02-02T18:25:16;13.02;;;3.42;;
4448;SDS011;2237;51.870;6.160;2023-02-02T18:27:43;15.00;;;4.35;;
4448;SDS011;2237;51.870;6.160;2023-02-02T18:30:10;22.42;;;5.40;;
4448;SDS011;2237;51.870;6.160;2023-02-02T18:32:37;11.18;;;2.95;;
4448;SDS011;2237;51.870;6.160;2023-02-02T18:35:05;12.27;;;3.92;;
4448;SDS011;2237;51.870;6.160;2023-02-02T18:37:33;14.75;;;3.88;;
4448;SDS011;2237;51.870;6.160;2023-02-02T18:40:00;11.15;;;3.97;;